Historyczne dane pomiarowe

Dodano dane terminowe – wersja testowa.

Dane z okresu 1951-2019

Wersja bazy: 1.34 [2019-03-16, lista zmian], aktualizacja planowana na 2019-04-15

Dane meteo z obszaru Polski uzyskane na podstawie danych udostępnionych przez Instytut Meteorologii i Gospodarki Wodnej – Państwowy Instytut Badawczy.

 

Wybierz Datę:    

       

TemperaturaWilgotnośćWiatrCiśnienieOpadyŚniegCzas trwania zjawisk
 Stacja t tx tn tng RH VA  wxwx mslp ppp RRR   cm mm wxwxwxwxwxwxwx
2019-09-30 16.9 21.5 12.6 12.0 64.0 12.1- 3.0--1002.5 978.1 2.4 2.4 0.0x- 2.7-------
2019-09-29 15.0 21.5 8.1 6.7 70.9 11.5- 1.6--1011.3 986.5 0.0 0.0 0.0x- 8.2-------
2019-09-28 15.2 20.0 11.6 9.8 76.3 13.1- 1.0--1014.5 989.7 0.0 0.0 0.0x- 1.0-------
2019-09-27 16.9 22.5 10.7 9.2 72.5 13.5- 0.8--1015.0 990.4 0.0 0.0 0.0x- 7.4-------
2019-09-26 15.4 19.3 12.3 10.8 79.0 13.6- 1.5--1012.0 987.2 0.9 0.9 0.0x- 6.9-------
2019-09-25 13.3 19.6 7.3 6.4 85.0 12.9- 1.4--1009.9 985.1 0.2 0.0 0.2x- 1.3-------
2019-09-24 11.0 14.7 10.0 9.4 86.4 11.3- 1.4--1016.0 990.8 0.0 0.0 0.0x- 2.8-------
2019-09-23 12.6 20.3 4.5 3.6 74.0 10.3- 1.5--1016.0 990.9 0.0 0.0 0.0x- 8.6-------
2019-09-22 12.8 21.9 4.2 3.4 69.8 9.7- 1.0--1019.1 994.0 0.0 0.0 0.0x- 9.3-------
2019-09-21 11.5 18.3 5.5 4.5 72.0 9.3- 0.9--1025.3 999.9 0.0 0.0 0.0x- 9.6-------
2019-09-20 8.4 14.6 4.3 3.1 84.4 9.2- 0.9--1026.91001.1 0.7 0.7 0.0x- 5.0-------
2019-09-19 9.4 13.5 7.2 6.0 74.1 8.7- 1.9--1024.2 998.6 1.4 0.7 0.7x- 4.4-------
2019-09-18 10.3 14.2 8.2 7.7 64.9 8.0- 2.3--1018.2 992.8 0.0 0.0 0.0x- 3.4-------
2019-09-17 13.2 16.9 11.5 11.6 76.9 11.4- 1.8--1013.2 988.3 0.8 0.0 0.8x- 2.8-------
2019-09-16 15.5 20.9 10.6 9.3 75.8 13.1- 1.4--1016.6 991.7 3.5 1.1 2.4x- 4.0-------
2019-09-15 12.9 22.0 4.3 3.8 72.0 10.1- 0.6--1024.5 999.2 0.0 0.0 0.0x- 9.6-------
2019-09-14 14.2 20.0 10.6 9.4 68.6 10.9- 1.5--1031.41006.1 0.0 0.0 0.0x- 8.0-------
2019-09-13 17.4 23.9 9.7 8.8 74.0 14.2- 0.9--1028.21003.3 0.2 0.0 0.2x- 7.1-------
2019-09-12 16.3 24.4 9.3 8.5 75.5 13.3- 0.5--1027.71002.6 0.0 0.0 0.0x- 9.3-------
2019-09-11 15.8 24.0 8.6 8.0 76.9 13.2- 0.4--1024.3 999.3 0.0 0.0 0.0x- 9.9-------
2019-09-10 15.5 21.2 10.4 9.3 72.1 12.3- 1.5--1019.4 994.4 0.0 0.0 0.0x- 8.8-------
2019-09-09 17.2 23.0 15.1 13.5 79.5 15.3- 1.8--1013.2 988.6 15.1 8.5 6.6x- 1.2-------
2019-09-08 18.5 23.4 15.3 15.3 79.3 16.6- 1.3--1017.0 992.4 0.0 0.0 0.0x- 6.7-------
2019-09-07 17.8 25.3 11.9 10.5 69.3 13.8- 1.5--1018.0 993.3 7.0 0.0 7.0x- 6.0-------
2019-09-06 17.0 21.9 13.3 12.1 67.6 12.8- 1.6--1022.0 997.1 0.0 0.0 0.0x- 9.3-------
2019-09-05 17.1 25.6 9.7 8.5 69.1 12.6- 0.4--1015.7 991.0 0.0 0.0 0.0x- 10.2-------
2019-09-04 15.3 22.9 8.0 7.4--- 0.5--1020.7 995.7 0.0 0.0 0.0x- 9.4-------
2019-09-03 13.1 17.2 12.3 11.4--- 0.9--1023.1 997.9 5.7 5.7 0.0x- 0.0-------
2019-09-02 19.0 24.3 16.6 15.3 87.0 19.1- 1.0--1015.8 991.3 18.7 8.2 10.5x- 3.6-------
2019-09-01 24.0 31.6 17.5 15.8 65.5 18.5- 1.3--1013.3 989.3 0.0 0.0 0.0x- 11.1-------
2019-08-31 22.6 29.3 15.2 14.1 70.6 18.6- 1.4--1020.1 995.7 0.0 0.0 0.0x- 11.4-------
2019-08-30 22.4 29.7 16.6 15.5 71.9 18.9- 1.1--1021.4 997.0 0.0 0.0 0.0x- 10.4-------
2019-08-29 23.9 33.2 16.5 15.3 68.9 18.9- 0.6--1018.4 994.2 0.0 0.0 0.0x- 9.8-------
2019-08-28 23.1 32.3 16.4 15.2 70.5 19.0- 0.9--1019.7 995.4 0.1 0.1 0.0x- 8.7-------
2019-08-27 24.0 31.3 16.1 14.9 68.1 19.4- 1.3--1020.8 996.6 0.0 0.0 0.0x- 11.8-------
2019-08-26 23.3 31.5 16.2 14.8 71.4 19.5- 1.6--1021.4 997.1 0.0 0.0 0.0x- 12.0-------
2019-08-25 21.5 29.0 13.9 12.8 71.9 18.2- 1.1--1022.5 998.0 0.0 0.0 0.0x- 12.1-------
2019-08-24 20.3 26.7 14.3 13.0 70.3 16.1- 1.8--1024.61000.0 0.0 0.0 0.0x- 11.8-------
2019-08-23 19.1 25.6 13.0 11.7 75.4 16.2- 1.5--1026.71001.9 0.0 0.0 0.0x- 12.2-------
2019-08-22 17.3 22.6 14.1 13.4 78.0 15.1- 1.5--1028.41003.4 0.0 0.0 0.0x- 5.1-------
2019-08-21 18.1 21.8 17.3 16.6 88.3 18.4- 1.5--1024.0 999.1 0.0 0.0 0.0x- 0.4-------
2019-08-20 21.9 28.2 16.9 16.2 82.6 21.3- 1.3--1020.4 996.0 0.6 0.5 0.1x- 7.9-------
2019-08-19 24.3 31.9 17.9 15.8 66.1 19.2- 1.1--1015.2 991.1 0.1 0.1 0.0x- 11.3-------
2019-08-18 21.8 28.7 13.5 12.5 67.4 17.0- 1.3--1013.1 988.9 0.0 0.0 0.0x- 9.5-------
2019-08-17 19.2 25.3 13.4 12.8 72.6 15.6- 0.8--1016.2 991.6 0.0 0.0 0.0x- 9.8-------
2019-08-16 17.5 23.9 9.9 9.0 69.9 13.5- 0.6--1016.1 991.4 0.1 0.1 0.0x- 7.3-------
2019-08-15 15.3 23.2 8.0 7.7 74.3 12.2- 0.8--1017.1 992.2 0.0 0.0 0.0x- 11.1-------
2019-08-14 15.0 19.5 13.7 13.0 95.3 16.3- 1.1--1016.0 991.2 9.8 9.8 0.0x- 0.8-------
2019-08-13 19.2 26.6 17.6 17.7 89.4 19.8- 1.1--1015.4 990.9 8.8 0.4 8.4x- 1.5-------
2019-08-12 25.1 32.6 17.7 16.7 69.6 21.4- 1.0--1013.1 989.1 8.3 0.0 8.3x- 9.7-------
2019-08-11 22.2 27.5 18.5 17.6 73.9 19.1- 1.3--1017.8 993.5 0.0 0.0 0.0x- 10.2-------
2019-08-10 23.4 31.8 13.5 12.9 65.0 17.9- 1.1--1014.0 989.9 15.3 0.0 15.3x- 8.6-------
2019-08-09 20.8 28.0 13.6 12.8 66.3 15.1- 1.0--1013.9 989.6 0.0 0.0 0.0x- 11.8-------
2019-08-08 20.3 25.7 18.1 17.8 76.5 17.7- 1.3--1011.0 986.7 0.0 0.0 0.0x- 7.7-------
2019-08-07 22.1 29.7 17.0 15.7 76.6 20.0- 1.5--1009.0 984.9 11.7 2.2 9.5x- 7.3-------
2019-08-06 22.3--- 63.9 16.5- 1.4--1011.8 987.6 0.0 0.0 0.0x- 10.9-------
2019-08-05 20.3 25.6 13.9- 65.4 15.0- 1.0--1013.3 989.0 0.0 0.0 0.0x- 9.0-------
2019-08-04 16.9 23.5 10.9 10.5 76.1 14.3- 1.3--1013.9 989.2 3.0 3.0 0.0x- 9.2-------
2019-08-03 17.5 24.5 13.1 12.5 74.8 14.5- 1.1--1011.1 986.5 0.6 0.0 0.6x- 6.4-------
2019-08-02 19.6 24.8 14.5 13.8 71.3 15.8- 1.4--1013.1 988.7 0.0 0.0 0.0x- 10.1-------
99.4 ms

 

Źródłem pochodzenia danych jest Instytut Meteorologii i Gospodarki Wodnej – Państwowy Instytut Badawczy. Dane Instytutu Meteorologii i Gospodarki Wodnej – Państwowego Instytutu Badawczego zostały przetworzone.

Dane źródłowe można odnaleźć na stronie https://dane.imgw.pl